createdAt,value
2023-02-09T00:01:09.453Z,57.77
2023-02-09T00:03:36.664Z,50.87
2023-02-09T00:06:05.690Z,56.23
2023-02-09T00:08:33.873Z,55.10
2023-02-09T00:11:00.336Z,52.47
2023-02-09T00:13:27.288Z,59.03
2023-02-09T00:15:57.034Z,55.93
2023-02-09T00:18:24.541Z,59.23
2023-02-09T00:21:09.462Z,57.97
2023-02-09T00:23:38.483Z,54.33
2023-02-09T00:26:08.247Z,62.00
2023-02-09T00:28:35.331Z,53.47
2023-02-09T00:31:09.839Z,58.63
2023-02-09T00:33:36.977Z,46.30
2023-02-09T00:36:07.857Z,57.63
2023-02-09T00:38:35.737Z,57.57
2023-02-09T00:41:03.648Z,57.63
2023-02-09T00:43:30.170Z,52.63
2023-02-09T00:45:56.550Z,52.40
2023-02-09T00:48:23.271Z,56.10
2023-02-09T00:50:50.953Z,56.57
2023-02-09T00:53:18.513Z,62.77
2023-02-09T00:55:45.084Z,52.30
2023-02-09T00:58:11.437Z,53.33
2023-02-09T01:00:37.828Z,53.50
2023-02-09T01:03:04.332Z,56.33
2023-02-09T01:05:31.005Z,56.90
2023-02-09T01:07:57.657Z,53.73
2023-02-09T01:10:24.130Z,63.83
2023-02-09T01:12:50.838Z,52.47
2023-02-09T01:15:17.483Z,54.53
2023-02-09T01:17:44.085Z,57.37
2023-02-09T01:20:12.525Z,54.33
2023-02-09T01:22:39.492Z,50.33
2023-02-09T01:25:07.493Z,56.33
2023-02-09T01:27:34.243Z,57.60
2023-02-09T01:30:00.816Z,53.50
2023-02-09T01:32:27.569Z,58.80
2023-02-09T01:34:54.465Z,56.23
2023-02-09T01:37:21.263Z,54.80
2023-02-09T01:39:48.145Z,54.27
2023-02-09T01:42:19.888Z,50.53
2023-02-09T01:44:46.153Z,56.90
2023-02-09T01:47:14.958Z,56.27
2023-02-09T01:49:42.797Z,56.10
2023-02-09T01:52:31.403Z,52.30
2023-02-09T01:55:06.545Z,51.00
2023-02-09T01:57:37.111Z,52.27
2023-02-09T02:00:13.463Z,54.83
2023-02-09T02:02:42.829Z,57.50
2023-02-09T02:05:09.817Z,50.23
2023-02-09T02:07:42.765Z,52.80
2023-02-09T02:10:09.642Z,58.33
2023-02-09T02:12:36.872Z,49.87
2023-02-09T02:15:03.437Z,49.80
2023-02-09T02:17:48.472Z,50.40
2023-02-09T02:20:33.165Z,55.73
2023-02-09T02:23:03.573Z,61.57
2023-02-09T02:25:59.318Z,55.63
2023-02-09T02:28:32.994Z,56.97
2023-02-09T02:31:11.294Z,54.60
2023-02-09T02:34:00.911Z,56.03
2023-02-09T02:36:44.908Z,54.10
2023-02-09T02:39:33.474Z,53.67
2023-02-09T02:42:47.017Z,58.93
2023-02-09T02:45:28.690Z,52.70
2023-02-09T02:48:01.976Z,61.57
2023-02-09T02:50:32.485Z,54.03
2023-02-09T02:53:03.095Z,59.70
2023-02-09T02:55:32.549Z,60.47
2023-02-09T02:58:04.082Z,60.40
2023-02-09T03:00:36.344Z,61.17
2023-02-09T03:03:10.098Z,56.43
2023-02-09T03:05:37.473Z,60.47
2023-02-09T03:08:04.020Z,51.87
2023-02-09T03:10:37.296Z,61.13
2023-02-09T03:13:18.206Z,55.53
2023-02-09T03:16:15.266Z,57.63
2023-02-09T03:18:59.385Z,59.00
2023-02-09T03:21:46.379Z,60.10
2023-02-09T03:24:36.061Z,61.43
2023-02-09T03:27:12.553Z,59.93
2023-02-09T03:29:40.377Z,55.30
2023-02-09T03:32:08.452Z,62.30
2023-02-09T03:34:35.320Z,62.20
2023-02-09T03:37:01.712Z,58.87
2023-02-09T03:39:28.205Z,60.07
2023-02-09T03:41:54.546Z,54.00
2023-02-09T03:44:26.523Z,59.03
2023-02-09T03:46:54.138Z,56.07
2023-02-09T03:49:20.645Z,57.00
2023-02-09T03:51:47.008Z,59.13
2023-02-09T03:54:13.576Z,73.57
2023-02-09T03:56:39.941Z,50.90
2023-02-09T03:59:06.509Z,50.63
2023-02-09T04:01:35.950Z,63.43
2023-02-09T04:04:03.364Z,55.73
2023-02-09T04:06:31.647Z,62.73
2023-02-09T04:08:59.047Z,58.00
2023-02-09T04:11:26.023Z,60.97
2023-02-09T04:13:52.355Z,61.13
2023-02-09T04:16:18.867Z,53.77
2023-02-09T04:18:45.504Z,64.00
2023-02-09T04:21:12.438Z,58.40
2023-02-09T04:23:39.158Z,64.10
2023-02-09T04:26:05.529Z,52.83
2023-02-09T04:28:32.266Z,57.63
2023-02-09T04:30:58.706Z,63.10
2023-02-09T04:33:25.494Z,54.70
2023-02-09T04:35:52.641Z,66.77
2023-02-09T04:38:21.062Z,55.23
2023-02-09T04:40:48.694Z,61.10
2023-02-09T04:43:15.129Z,56.40
2023-02-09T04:45:42.368Z,60.57
2023-02-09T04:48:12.607Z,63.67
2023-02-09T04:50:39.179Z,55.70
2023-02-09T04:53:05.730Z,57.50
2023-02-09T04:55:32.119Z,61.47
2023-02-09T04:58:17.267Z,60.60
2023-02-09T05:00:44.026Z,60.33
2023-02-09T05:03:10.503Z,61.50
2023-02-09T05:05:40.591Z,54.37
2023-02-09T05:08:07.050Z,59.73
2023-02-09T05:10:34.005Z,56.77
2023-02-09T05:13:00.372Z,63.37
2023-02-09T05:15:26.832Z,59.00
2023-02-09T05:17:53.146Z,59.93
2023-02-09T05:20:19.552Z,55.37
2023-02-09T05:22:45.913Z,59.17
2023-02-09T05:25:12.305Z,62.07
2023-02-09T05:27:38.815Z,54.10
2023-02-09T05:30:06.077Z,56.27
2023-02-09T05:32:32.410Z,56.83
2023-02-09T05:34:58.729Z,58.03
2023-02-09T05:37:25.087Z,62.47
2023-02-09T05:39:51.486Z,62.30
2023-02-09T05:42:17.899Z,56.87
2023-02-09T05:44:49.007Z,65.83
2023-02-09T05:47:20.471Z,60.70
2023-02-09T05:49:47.236Z,61.07
2023-02-09T05:52:14.846Z,62.67
2023-02-09T05:54:41.157Z,56.67
2023-02-09T05:57:08.348Z,68.90
2023-02-09T05:59:35.054Z,71.63
2023-02-09T06:02:01.689Z,64.53
2023-02-09T06:04:28.073Z,54.90
2023-02-09T06:06:54.841Z,52.10
2023-02-09T06:09:21.878Z,57.73
2023-02-09T06:11:48.290Z,61.20
2023-02-09T06:14:14.671Z,75.47
2023-02-09T06:16:41.385Z,66.70
2023-02-09T06:19:12.396Z,68.67
2023-02-09T06:21:38.733Z,58.47
2023-02-09T06:24:05.187Z,62.53
2023-02-09T06:26:31.526Z,62.37
2023-02-09T06:28:57.918Z,62.00
2023-02-09T06:31:24.520Z,60.50
2023-02-09T06:33:50.924Z,70.47
2023-02-09T06:36:17.254Z,58.80
2023-02-09T06:38:43.666Z,61.40
2023-02-09T06:41:10.022Z,64.90
2023-02-09T06:43:36.345Z,59.73
2023-02-09T06:46:08.226Z,61.13
2023-02-09T06:48:35.012Z,64.87
2023-02-09T06:51:01.736Z,65.40
2023-02-09T06:53:28.278Z,65.57
2023-02-09T06:56:00.467Z,61.80
2023-02-09T06:58:27.187Z,70.83
2023-02-09T07:00:53.625Z,67.93
2023-02-09T07:03:19.960Z,69.20
2023-02-09T07:05:46.532Z,65.53
2023-02-09T07:08:12.976Z,72.03
2023-02-09T07:10:40.836Z,64.90
2023-02-09T07:13:07.156Z,69.77
2023-02-09T07:15:33.481Z,74.57
2023-02-09T07:17:59.844Z,64.07
2023-02-09T07:20:26.313Z,68.37
2023-02-09T07:22:52.758Z,73.00
2023-02-09T07:25:19.102Z,70.80
2023-02-09T07:27:45.527Z,69.60
2023-02-09T07:30:12.420Z,64.43
2023-02-09T07:32:39.226Z,75.77
2023-02-09T07:35:06.089Z,78.23
2023-02-09T07:37:32.745Z,77.63
2023-02-09T07:39:59.196Z,64.60
2023-02-09T07:42:25.547Z,75.07
2023-02-09T07:44:51.889Z,70.57
2023-02-09T07:47:18.248Z,67.33
2023-02-09T07:49:44.588Z,62.13
2023-02-09T07:52:11.261Z,68.13
2023-02-09T07:54:37.581Z,63.23
2023-02-09T07:57:03.932Z,62.87
2023-02-09T07:59:30.237Z,65.23
2023-02-09T08:01:56.624Z,68.50
2023-02-09T08:04:24.019Z,66.30
2023-02-09T08:06:50.526Z,64.07
2023-02-09T08:09:16.855Z,65.97
2023-02-09T08:11:55.219Z,69.90
2023-02-09T08:14:36.125Z,73.03
2023-02-09T08:17:20.365Z,63.80
2023-02-09T08:19:53.953Z,67.87
2023-02-09T08:22:23.701Z,71.07
2023-02-09T08:24:50.380Z,78.13
2023-02-09T08:27:16.784Z,68.40
2023-02-09T08:29:43.188Z,68.73
2023-02-09T08:32:09.574Z,82.23
2023-02-09T08:34:35.930Z,70.93
2023-02-09T08:37:02.287Z,70.50
2023-02-09T08:39:28.630Z,74.63
2023-02-09T08:41:54.978Z,76.23
2023-02-09T08:44:21.325Z,75.60
2023-02-09T08:46:47.811Z,77.53
2023-02-09T08:49:14.251Z,64.33
2023-02-09T08:51:40.594Z,68.30
2023-02-09T08:54:06.945Z,77.90
2023-02-09T08:56:34.353Z,77.13
2023-02-09T08:59:00.688Z,74.73
2023-02-09T09:01:27.055Z,72.83
2023-02-09T09:03:53.529Z,85.33
2023-02-09T09:06:21.609Z,78.57
2023-02-09T09:08:47.925Z,78.97
2023-02-09T09:11:14.683Z,73.50
2023-02-09T09:13:41.570Z,68.50
2023-02-09T09:16:14.354Z,78.57
2023-02-09T09:18:40.720Z,78.07
2023-02-09T09:21:07.087Z,78.63
2023-02-09T09:23:33.432Z,71.40
2023-02-09T09:26:03.734Z,77.90
2023-02-09T09:28:30.819Z,74.97
2023-02-09T09:30:59.696Z,67.00
2023-02-09T09:33:26.088Z,83.73
2023-02-09T09:35:52.424Z,78.83
2023-02-09T09:38:19.044Z,78.63
2023-02-09T09:40:45.722Z,88.37
2023-02-09T09:43:33.431Z,75.33
2023-02-09T09:46:01.449Z,73.13
2023-02-09T09:48:52.292Z,78.73
2023-02-09T09:51:27.545Z,76.70
2023-02-09T09:53:56.370Z,75.20
2023-02-09T09:56:23.020Z,79.03
2023-02-09T09:58:51.545Z,81.43
2023-02-09T10:01:20.275Z,76.90
2023-02-09T10:03:47.234Z,80.33
2023-02-09T10:06:20.437Z,79.93
2023-02-09T10:09:02.088Z,84.57
2023-02-09T10:11:45.547Z,81.07
2023-02-09T10:14:11.908Z,81.70
2023-02-09T10:16:38.443Z,77.73
2023-02-09T10:19:16.203Z,86.87
2023-02-09T10:21:42.766Z,84.60
2023-02-09T10:24:16.183Z,72.27
2023-02-09T10:26:42.991Z,82.47
2023-02-09T10:29:12.432Z,76.60
2023-02-09T10:31:42.648Z,71.00
2023-02-09T10:34:20.415Z,90.23
2023-02-09T10:36:50.331Z,79.90
2023-02-09T10:39:20.397Z,77.93
2023-02-09T10:41:51.192Z,80.03
2023-02-09T10:44:27.004Z,77.93
2023-02-09T10:47:28.052Z,79.33
2023-02-09T10:50:12.665Z,78.30
2023-02-09T10:52:43.984Z,78.47
2023-02-09T10:55:21.929Z,77.47
2023-02-09T10:57:48.584Z,75.40
2023-02-09T11:00:14.914Z,70.03
2023-02-09T11:02:43.113Z,69.87
2023-02-09T11:05:21.579Z,74.97
2023-02-09T11:08:19.218Z,85.97
2023-02-09T11:10:57.694Z,79.87
2023-02-09T11:13:26.467Z,74.90
2023-02-09T11:16:12.999Z,75.50
2023-02-09T11:18:44.352Z,79.03
2023-02-09T11:22:03.428Z,78.63
2023-02-09T11:24:44.222Z,74.60
2023-02-09T11:27:41.748Z,69.90
2023-02-09T11:30:47.186Z,78.97
2023-02-09T11:33:26.326Z,68.50
2023-02-09T11:36:30.531Z,66.23
2023-02-09T11:38:58.989Z,68.33
2023-02-09T11:42:13.168Z,66.87
2023-02-09T11:44:46.478Z,61.97
2023-02-09T11:47:25.781Z,72.17
2023-02-09T11:49:54.079Z,70.67
2023-02-09T11:52:44.584Z,72.30
2023-02-09T11:55:25.101Z,70.17
2023-02-09T11:57:59.079Z,75.90
2023-02-09T12:00:33.931Z,71.00
2023-02-09T12:03:08.574Z,67.90
2023-02-09T12:05:36.106Z,66.83
2023-02-09T12:08:10.377Z,69.43
2023-02-09T12:10:43.069Z,71.43
2023-02-09T12:13:27.763Z,63.23
2023-02-09T12:15:57.951Z,72.47
2023-02-09T12:18:27.459Z,65.40
2023-02-09T12:20:59.780Z,64.47
2023-02-09T12:23:31.805Z,63.57
2023-02-09T12:26:16.507Z,61.87
2023-02-09T12:28:53.767Z,64.30
2023-02-09T12:31:23.831Z,62.60
2023-02-09T12:34:02.933Z,65.60
2023-02-09T12:36:32.559Z,67.07
2023-02-09T12:39:06.819Z,63.67
2023-02-09T12:41:53.194Z,67.40
2023-02-09T12:44:19.716Z,61.27
2023-02-09T12:46:52.761Z,63.30
2023-02-09T12:49:31.346Z,60.57
2023-02-09T12:52:00.759Z,60.93
2023-02-09T12:54:34.018Z,58.60
2023-02-09T12:57:23.707Z,72.63
2023-02-09T12:59:50.203Z,56.07
2023-02-09T13:02:36.910Z,57.43
2023-02-09T13:05:13.456Z,59.30
2023-02-09T13:07:42.600Z,62.80
2023-02-09T13:10:27.541Z,56.13
2023-02-09T13:13:06.761Z,54.87
2023-02-09T13:15:52.852Z,58.67
2023-02-09T13:18:37.809Z,54.20
2023-02-09T13:21:22.858Z,53.77
2023-02-09T13:24:14.206Z,56.47
2023-02-09T13:26:55.523Z,55.73
2023-02-09T13:29:26.749Z,49.40
2023-02-09T13:32:13.346Z,49.10
2023-02-09T13:34:47.974Z,51.03
2023-02-09T13:37:26.182Z,54.83
2023-02-09T13:40:13.572Z,46.13
2023-02-09T13:42:53.159Z,49.50
2023-02-09T13:45:19.664Z,57.00
2023-02-09T13:47:47.299Z,50.90
2023-02-09T13:50:16.584Z,51.00
2023-02-09T13:52:43.289Z,51.63
2023-02-09T13:55:09.606Z,51.67
2023-02-09T13:57:38.293Z,43.07
2023-02-09T14:00:27.014Z,49.90
2023-02-09T14:02:57.033Z,41.50
2023-02-09T14:05:41.505Z,46.73
2023-02-09T14:08:09.286Z,44.70
2023-02-09T14:10:36.106Z,44.80
2023-02-09T14:13:15.839Z,44.20
2023-02-09T14:16:05.109Z,44.40
2023-02-09T14:18:53.025Z,45.67
2023-02-09T14:21:32.413Z,47.33
2023-02-09T14:23:58.739Z,51.93
2023-02-09T14:26:29.871Z,45.70
2023-02-09T14:29:02.311Z,42.47
2023-02-09T14:31:28.787Z,50.83
2023-02-09T14:33:56.971Z,42.83
2023-02-09T14:36:33.557Z,45.60
2023-02-09T14:39:19.900Z,44.80
2023-02-09T14:42:08.227Z,44.07
2023-02-09T14:44:45.258Z,43.73
2023-02-09T14:47:27.435Z,46.13
2023-02-09T14:49:53.786Z,40.70
2023-02-09T14:52:23.550Z,38.07
2023-02-09T14:54:50.538Z,37.70
2023-02-09T14:57:16.942Z,43.93
2023-02-09T14:59:43.312Z,43.50
2023-02-09T15:02:19.988Z,42.57
2023-02-09T15:04:46.868Z,43.47
2023-02-09T15:07:18.813Z,42.73
2023-02-09T15:09:46.250Z,51.23
2023-02-09T15:12:26.436Z,45.50
2023-02-09T15:14:57.050Z,42.23
2023-02-09T15:17:27.694Z,49.30
2023-02-09T15:19:55.234Z,41.73
2023-02-09T15:22:21.925Z,47.87
2023-02-09T15:24:51.236Z,49.87
2023-02-09T15:27:33.585Z,43.17
2023-02-09T15:30:02.980Z,44.27
2023-02-09T15:32:30.526Z,47.27
2023-02-09T15:34:56.978Z,37.07
2023-02-09T15:37:26.915Z,47.17
2023-02-09T15:40:01.512Z,44.70
2023-02-09T15:42:46.795Z,48.70
2023-02-09T15:45:36.383Z,43.57
2023-02-09T15:48:03.794Z,43.03
2023-02-09T15:50:32.372Z,48.93
2023-02-09T15:52:58.866Z,56.30
2023-02-09T15:55:26.530Z,48.47
2023-02-09T15:57:54.057Z,47.00
2023-02-09T16:00:24.779Z,45.57
2023-02-09T16:02:53.198Z,42.30
2023-02-09T16:05:21.003Z,47.90
2023-02-09T16:07:49.745Z,50.40
2023-02-09T16:10:23.474Z,55.83
2023-02-09T16:12:50.094Z,55.90
2023-02-09T16:15:22.769Z,47.10
2023-02-09T16:17:49.697Z,51.63
2023-02-09T16:20:18.594Z,48.23
2023-02-09T16:22:48.214Z,43.83
2023-02-09T16:25:23.147Z,41.77
2023-02-09T16:27:53.580Z,45.23
2023-02-09T16:30:28.427Z,44.40
2023-02-09T16:32:55.554Z,48.20
2023-02-09T16:35:24.139Z,49.93
2023-02-09T16:37:52.234Z,47.70
2023-02-09T16:40:30.806Z,43.80
2023-02-09T16:42:59.601Z,45.63
2023-02-09T16:45:30.250Z,44.53
2023-02-09T16:47:59.184Z,44.33
2023-02-09T16:50:32.995Z,46.27
2023-02-09T16:53:02.621Z,41.67
2023-02-09T16:55:32.125Z,48.20
2023-02-09T16:58:00.229Z,45.50
2023-02-09T17:00:38.126Z,47.40
2023-02-09T17:03:15.398Z,48.47
2023-02-09T17:05:46.740Z,48.23
2023-02-09T17:08:23.013Z,46.63
2023-02-09T17:10:51.674Z,44.67
2023-02-09T17:13:21.725Z,45.43
2023-02-09T17:15:50.802Z,47.97
2023-02-09T17:18:21.094Z,46.90
2023-02-09T17:20:55.118Z,53.73
2023-02-09T17:23:24.991Z,47.07
2023-02-09T17:25:54.862Z,55.43
2023-02-09T17:28:22.540Z,54.33
2023-02-09T17:30:49.578Z,63.53
2023-02-09T17:33:24.824Z,49.50
2023-02-09T17:36:23.693Z,47.57
2023-02-09T17:38:42.365Z,48.57
2023-02-09T17:41:17.865Z,49.00
2023-02-09T17:43:45.133Z,52.30
2023-02-09T17:46:16.361Z,53.83
2023-02-09T17:48:42.831Z,48.57
2023-02-09T17:51:19.782Z,55.77
2023-02-09T17:53:46.437Z,70.50
2023-02-09T17:56:16.314Z,53.90
2023-02-09T17:58:46.081Z,52.63
2023-02-09T18:01:33.161Z,48.73
2023-02-09T18:04:01.451Z,49.47
2023-02-09T18:06:39.526Z,48.80
2023-02-09T18:09:12.124Z,54.73
2023-02-09T18:11:56.565Z,44.57
2023-02-09T18:14:24.803Z,64.70
2023-02-09T18:16:52.007Z,54.27
2023-02-09T18:19:18.617Z,55.80
2023-02-09T18:21:57.108Z,60.10
2023-02-09T18:24:25.348Z,54.80
2023-02-09T18:26:52.020Z,56.10
2023-02-09T18:29:20.153Z,46.83
2023-02-09T18:31:46.764Z,44.80
2023-02-09T18:34:14.617Z,54.03
2023-02-09T18:36:41.617Z,54.27
2023-02-09T18:39:08.011Z,54.17
2023-02-09T18:41:34.347Z,53.37
2023-02-09T18:44:00.722Z,50.77
2023-02-09T18:46:27.300Z,52.60
2023-02-09T18:48:54.584Z,51.43
2023-02-09T18:51:21.362Z,53.67
2023-02-09T18:53:51.325Z,56.93
2023-02-09T18:56:19.769Z,48.53
2023-02-09T18:58:47.337Z,50.40
2023-02-09T19:01:13.807Z,51.97
2023-02-09T19:03:40.235Z,52.70
2023-02-09T19:06:11.154Z,52.20
2023-02-09T19:08:39.170Z,49.57
2023-02-09T19:11:07.241Z,51.67
2023-02-09T19:13:33.917Z,47.13
2023-02-09T19:16:00.745Z,56.47
2023-02-09T19:18:27.412Z,54.33
2023-02-09T19:20:55.571Z,52.07
2023-02-09T19:23:23.984Z,58.70
2023-02-09T19:25:59.693Z,48.10
2023-02-09T19:28:26.122Z,51.87
2023-02-09T19:30:52.747Z,57.23
2023-02-09T19:33:19.167Z,52.90
2023-02-09T19:35:45.759Z,52.77
2023-02-09T19:38:12.241Z,51.10
2023-02-09T19:40:41.244Z,54.77
2023-02-09T19:43:07.721Z,55.33
2023-02-09T19:45:37.701Z,54.10
2023-02-09T19:48:06.224Z,53.63
2023-02-09T19:50:32.925Z,53.30
2023-02-09T19:52:59.274Z,52.27
2023-02-09T19:55:25.641Z,55.50
2023-02-09T19:57:52.032Z,50.33
2023-02-09T20:00:18.542Z,47.90
2023-02-09T20:02:45.735Z,47.40
2023-02-09T20:05:12.310Z,43.80
2023-02-09T20:07:38.647Z,54.97
2023-02-09T20:10:05.701Z,49.90
2023-02-09T20:12:32.621Z,49.83
2023-02-09T20:14:59.029Z,49.77
2023-02-09T20:17:26.653Z,52.57
2023-02-09T20:19:53.247Z,47.53
2023-02-09T20:22:20.041Z,48.10
2023-02-09T20:24:46.369Z,54.03
2023-02-09T20:27:13.240Z,50.70
2023-02-09T20:29:39.564Z,58.67
2023-02-09T20:32:06.344Z,59.60
2023-02-09T20:34:32.841Z,53.23
2023-02-09T20:36:59.327Z,56.60
2023-02-09T20:39:25.641Z,53.13
2023-02-09T20:42:15.447Z,53.00
2023-02-09T20:45:00.475Z,47.10
2023-02-09T20:47:29.632Z,57.30
2023-02-09T20:49:57.490Z,46.90
2023-02-09T20:52:23.824Z,52.50
2023-02-09T20:54:50.260Z,51.43
2023-02-09T20:57:16.587Z,58.27
2023-02-09T20:59:42.919Z,54.57
2023-02-09T21:02:11.962Z,56.83
2023-02-09T21:04:38.377Z,46.47
2023-02-09T21:07:04.851Z,49.37
2023-02-09T21:09:31.207Z,51.33
2023-02-09T21:11:57.778Z,58.27
2023-02-09T21:14:40.081Z,54.80
2023-02-09T21:17:07.790Z,50.00
2023-02-09T21:19:34.497Z,54.13
2023-02-09T21:22:00.867Z,55.57
2023-02-09T21:24:27.201Z,50.90
2023-02-09T21:26:53.599Z,57.20
2023-02-09T21:29:20.114Z,54.47
2023-02-09T21:31:46.611Z,49.67
2023-02-09T21:34:14.755Z,45.70
2023-02-09T21:36:41.234Z,53.60
2023-02-09T21:39:08.108Z,67.30
2023-02-09T21:41:53.173Z,125.03
2023-02-09T21:44:19.764Z,64.13
2023-02-09T21:46:47.849Z,84.00
2023-02-09T21:49:14.730Z,61.17
2023-02-09T21:51:42.038Z,61.70
2023-02-09T21:54:13.005Z,50.40
2023-02-09T21:56:39.369Z,61.30
2023-02-09T21:59:05.718Z,51.83
2023-02-09T22:01:33.332Z,49.20
2023-02-09T22:04:00.400Z,48.30
2023-02-09T22:06:30.069Z,50.13
2023-02-09T22:08:56.806Z,56.97
2023-02-09T22:11:23.126Z,51.10
2023-02-09T22:13:49.477Z,51.17
2023-02-09T22:16:24.123Z,54.70
2023-02-09T22:18:50.756Z,65.27
2023-02-09T22:21:17.499Z,59.40
2023-02-09T22:23:43.828Z,56.40
2023-02-09T22:26:13.588Z,57.93
2023-02-09T22:28:41.433Z,66.50
2023-02-09T22:31:11.051Z,55.57
2023-02-09T22:33:38.260Z,54.40
2023-02-09T22:36:09.297Z,47.07
2023-02-09T22:38:36.374Z,53.93
2023-02-09T22:41:07.583Z,52.10
2023-02-09T22:43:34.734Z,55.73
2023-02-09T22:46:01.213Z,49.70
2023-02-09T22:48:27.622Z,57.13
2023-02-09T22:50:54.000Z,58.07
2023-02-09T22:53:20.316Z,59.97
2023-02-09T22:55:48.142Z,57.03
2023-02-09T22:58:14.984Z,51.47
2023-02-09T23:00:41.582Z,47.97
2023-02-09T23:03:07.945Z,53.67
2023-02-09T23:05:35.052Z,53.93
2023-02-09T23:08:01.442Z,51.20
2023-02-09T23:10:27.781Z,52.20
2023-02-09T23:12:54.366Z,47.83
2023-02-09T23:15:20.750Z,51.50
2023-02-09T23:17:47.098Z,46.47
2023-02-09T23:20:13.439Z,56.17
2023-02-09T23:22:39.913Z,65.03
2023-02-09T23:25:06.648Z,48.50
2023-02-09T23:27:32.995Z,57.73
2023-02-09T23:29:59.349Z,65.93
2023-02-09T23:32:25.813Z,57.67
2023-02-09T23:34:52.122Z,53.40
2023-02-09T23:37:23.587Z,50.17
2023-02-09T23:39:55.093Z,59.90
2023-02-09T23:42:21.479Z,52.50
2023-02-09T23:44:47.801Z,51.80
2023-02-09T23:47:14.171Z,54.27
2023-02-09T23:49:40.509Z,59.70
2023-02-09T23:52:06.855Z,51.83
2023-02-09T23:54:33.174Z,56.10
2023-02-09T23:56:59.500Z,49.43
2023-02-09T23:59:25.881Z,46.43
